sensor_id;sensor_type;location;lat;lon;timestamp;P1;durP1;ratioP1;P2;durP2;ratioP2
305;SDS011;137;48.578;9.180;2024-02-15T00:01:51;2.23;;;1.20;;
305;SDS011;137;48.578;9.180;2024-02-15T00:04:17;2.20;;;1.87;;
305;SDS011;137;48.578;9.180;2024-02-15T00:06:46;1.50;;;1.10;;
305;SDS011;137;48.578;9.180;2024-02-15T00:09:13;4.00;;;1.70;;
305;SDS011;137;48.578;9.180;2024-02-15T00:11:40;9.33;;;1.27;;
305;SDS011;137;48.578;9.180;2024-02-15T00:14:06;2.20;;;1.47;;
305;SDS011;137;48.578;9.180;2024-02-15T00:16:33;3.93;;;1.17;;
305;SDS011;137;48.578;9.180;2024-02-15T00:19:00;1.53;;;1.17;;
305;SDS011;137;48.578;9.180;2024-02-15T00:21:27;2.13;;;1.17;;
305;SDS011;137;48.578;9.180;2024-02-15T00:23:55;1.67;;;1.10;;
305;SDS011;137;48.578;9.180;2024-02-15T00:26:24;2.30;;;1.40;;
305;SDS011;137;48.578;9.180;2024-02-15T00:28:51;2.83;;;1.50;;
305;SDS011;137;48.578;9.180;2024-02-15T00:31:18;1.50;;;1.17;;
305;SDS011;137;48.578;9.180;2024-02-15T00:33:45;2.80;;;1.33;;
305;SDS011;137;48.578;9.180;2024-02-15T00:36:11;1.57;;;1.10;;
305;SDS011;137;48.578;9.180;2024-02-15T00:38:38;1.80;;;1.20;;
305;SDS011;137;48.578;9.180;2024-02-15T00:41:06;1.50;;;1.17;;
305;SDS011;137;48.578;9.180;2024-02-15T00:43:34;2.53;;;1.10;;
305;SDS011;137;48.578;9.180;2024-02-15T00:46:01;1.73;;;0.90;;
305;SDS011;137;48.578;9.180;2024-02-15T00:48:28;1.93;;;0.97;;
305;SDS011;137;48.578;9.180;2024-02-15T00:50:54;3.20;;;1.60;;
305;SDS011;137;48.578;9.180;2024-02-15T00:53:21;2.50;;;1.07;;
305;SDS011;137;48.578;9.180;2024-02-15T00:55:48;3.17;;;1.53;;
305;SDS011;137;48.578;9.180;2024-02-15T00:58:16;2.77;;;1.43;;
305;SDS011;137;48.578;9.180;2024-02-15T01:00:43;1.77;;;1.30;;
305;SDS011;137;48.578;9.180;2024-02-15T01:03:10;3.30;;;1.87;;
305;SDS011;137;48.578;9.180;2024-02-15T01:05:36;6.57;;;2.27;;
305;SDS011;137;48.578;9.180;2024-02-15T01:08:03;2.50;;;2.30;;
305;SDS011;137;48.578;9.180;2024-02-15T01:10:30;2.17;;;1.93;;
305;SDS011;137;48.578;9.180;2024-02-15T01:12:58;2.93;;;2.40;;
305;SDS011;137;48.578;9.180;2024-02-15T01:15:26;4.10;;;2.67;;
305;SDS011;137;48.578;9.180;2024-02-15T01:17:53;2.37;;;2.17;;
305;SDS011;137;48.578;9.180;2024-02-15T01:20:20;3.73;;;2.80;;
305;SDS011;137;48.578;9.180;2024-02-15T01:22:47;2.50;;;2.30;;
305;SDS011;137;48.578;9.180;2024-02-15T01:25:15;2.47;;;2.27;;
305;SDS011;137;48.578;9.180;2024-02-15T01:27:42;5.73;;;2.10;;
305;SDS011;137;48.578;9.180;2024-02-15T01:30:09;2.83;;;2.10;;
305;SDS011;137;48.578;9.180;2024-02-15T01:32:38;3.60;;;2.77;;
305;SDS011;137;48.578;9.180;2024-02-15T01:35:07;2.40;;;2.20;;
305;SDS011;137;48.578;9.180;2024-02-15T01:37:35;2.30;;;2.00;;
305;SDS011;137;48.578;9.180;2024-02-15T01:40:02;2.37;;;2.17;;
305;SDS011;137;48.578;9.180;2024-02-15T01:42:31;5.37;;;2.00;;
305;SDS011;137;48.578;9.180;2024-02-15T01:44:58;2.97;;;2.67;;
305;SDS011;137;48.578;9.180;2024-02-15T01:47:25;2.20;;;1.97;;
305;SDS011;137;48.578;9.180;2024-02-15T01:49:53;3.00;;;1.90;;
305;SDS011;137;48.578;9.180;2024-02-15T01:52:19;2.80;;;2.20;;
305;SDS011;137;48.578;9.180;2024-02-15T01:54:47;3.20;;;1.90;;
305;SDS011;137;48.578;9.180;2024-02-15T01:57:16;4.37;;;3.33;;
305;SDS011;137;48.578;9.180;2024-02-15T01:59:45;5.40;;;3.90;;
305;SDS011;137;48.578;9.180;2024-02-15T02:02:12;3.60;;;2.10;;
305;SDS011;137;48.578;9.180;2024-02-15T02:04:42;3.07;;;2.00;;
305;SDS011;137;48.578;9.180;2024-02-15T02:07:10;3.07;;;1.60;;
305;SDS011;137;48.578;9.180;2024-02-15T02:09:37;1.73;;;1.30;;
305;SDS011;137;48.578;9.180;2024-02-15T02:12:04;2.80;;;1.40;;
305;SDS011;137;48.578;9.180;2024-02-15T02:14:32;1.70;;;1.50;;
305;SDS011;137;48.578;9.180;2024-02-15T02:17:10;5.73;;;1.70;;
305;SDS011;137;48.578;9.180;2024-02-15T02:19:38;2.00;;;1.50;;
305;SDS011;137;48.578;9.180;2024-02-15T02:22:05;2.07;;;1.30;;
305;SDS011;137;48.578;9.180;2024-02-15T02:24:36;2.43;;;2.23;;
305;SDS011;137;48.578;9.180;2024-02-15T02:27:12;1.87;;;1.53;;
305;SDS011;137;48.578;9.180;2024-02-15T02:29:42;2.90;;;2.20;;
305;SDS011;137;48.578;9.180;2024-02-15T02:32:10;3.00;;;1.87;;
305;SDS011;137;48.578;9.180;2024-02-15T02:34:37;2.93;;;1.87;;
305;SDS011;137;48.578;9.180;2024-02-15T02:37:05;2.27;;;1.90;;
305;SDS011;137;48.578;9.180;2024-02-15T02:39:33;2.43;;;2.23;;
305;SDS011;137;48.578;9.180;2024-02-15T02:42:00;3.40;;;2.50;;
305;SDS011;137;48.578;9.180;2024-02-15T02:44:28;3.00;;;2.70;;
305;SDS011;137;48.578;9.180;2024-02-15T02:46:54;2.30;;;2.10;;
305;SDS011;137;48.578;9.180;2024-02-15T02:49:21;2.40;;;1.83;;
305;SDS011;137;48.578;9.180;2024-02-15T02:51:48;2.40;;;2.20;;
305;SDS011;137;48.578;9.180;2024-02-15T02:54:15;2.87;;;2.30;;
305;SDS011;137;48.578;9.180;2024-02-15T02:56:42;3.00;;;2.30;;
305;SDS011;137;48.578;9.180;2024-02-15T02:59:10;2.40;;;2.10;;
305;SDS011;137;48.578;9.180;2024-02-15T03:01:39;2.33;;;1.70;;
305;SDS011;137;48.578;9.180;2024-02-15T03:04:06;2.13;;;1.83;;
305;SDS011;137;48.578;9.180;2024-02-15T03:06:32;3.70;;;2.50;;
305;SDS011;137;48.578;9.180;2024-02-15T03:09:00;3.07;;;1.90;;
305;SDS011;137;48.578;9.180;2024-02-15T03:11:32;2.50;;;2.13;;
305;SDS011;137;48.578;9.180;2024-02-15T03:13:59;3.17;;;2.60;;
305;SDS011;137;48.578;9.180;2024-02-15T03:16:29;2.60;;;2.30;;
305;SDS011;137;48.578;9.180;2024-02-15T03:18:57;2.10;;;1.90;;
305;SDS011;137;48.578;9.180;2024-02-15T03:21:26;3.83;;;2.43;;
305;SDS011;137;48.578;9.180;2024-02-15T03:23:52;2.33;;;2.07;;
305;SDS011;137;48.578;9.180;2024-02-15T03:26:26;2.33;;;2.00;;
305;SDS011;137;48.578;9.180;2024-02-15T03:29:03;3.80;;;2.60;;
305;SDS011;137;48.578;9.180;2024-02-15T03:31:30;3.83;;;3.17;;
305;SDS011;137;48.578;9.180;2024-02-15T03:33:58;2.47;;;2.27;;
305;SDS011;137;48.578;9.180;2024-02-15T03:36:25;3.23;;;2.10;;
305;SDS011;137;48.578;9.180;2024-02-15T03:38:54;3.03;;;2.50;;
305;SDS011;137;48.578;9.180;2024-02-15T03:41:21;3.20;;;2.60;;
305;SDS011;137;48.578;9.180;2024-02-15T03:43:47;2.53;;;2.27;;
305;SDS011;137;48.578;9.180;2024-02-15T03:46:14;2.87;;;2.30;;
305;SDS011;137;48.578;9.180;2024-02-15T03:48:41;3.00;;;2.70;;
305;SDS011;137;48.578;9.180;2024-02-15T03:51:11;3.27;;;2.97;;
305;SDS011;137;48.578;9.180;2024-02-15T03:53:43;2.97;;;2.30;;
305;SDS011;137;48.578;9.180;2024-02-15T03:56:10;4.40;;;3.40;;
305;SDS011;137;48.578;9.180;2024-02-15T03:58:37;3.60;;;2.30;;
305;SDS011;137;48.578;9.180;2024-02-15T04:01:04;4.43;;;2.80;;
305;SDS011;137;48.578;9.180;2024-02-15T04:03:35;3.43;;;2.37;;
305;SDS011;137;48.578;9.180;2024-02-15T04:06:01;3.87;;;3.47;;
305;SDS011;137;48.578;9.180;2024-02-15T04:08:30;3.03;;;2.73;;
305;SDS011;137;48.578;9.180;2024-02-15T04:10:57;3.63;;;3.20;;
305;SDS011;137;48.578;9.180;2024-02-15T04:13:24;3.40;;;2.93;;
305;SDS011;137;48.578;9.180;2024-02-15T04:15:51;3.30;;;3.00;;
305;SDS011;137;48.578;9.180;2024-02-15T04:18:18;3.77;;;3.00;;
305;SDS011;137;48.578;9.180;2024-02-15T04:20:45;3.37;;;3.07;;
305;SDS011;137;48.578;9.180;2024-02-15T04:23:11;6.70;;;3.73;;
305;SDS011;137;48.578;9.180;2024-02-15T04:25:40;3.10;;;2.80;;
305;SDS011;137;48.578;9.180;2024-02-15T04:28:09;3.23;;;2.93;;
305;SDS011;137;48.578;9.180;2024-02-15T04:30:35;4.60;;;3.13;;
305;SDS011;137;48.578;9.180;2024-02-15T04:33:05;3.47;;;3.17;;
305;SDS011;137;48.578;9.180;2024-02-15T04:35:33;3.20;;;2.90;;
305;SDS011;137;48.578;9.180;2024-02-15T04:40:31;2.77;;;2.50;;
305;SDS011;137;48.578;9.180;2024-02-15T04:42:59;3.13;;;2.60;;
305;SDS011;137;48.578;9.180;2024-02-15T04:45:29;2.23;;;1.93;;
305;SDS011;137;48.578;9.180;2024-02-15T04:47:57;3.47;;;2.87;;
305;SDS011;137;48.578;9.180;2024-02-15T04:50:26;3.17;;;2.87;;
305;SDS011;137;48.578;9.180;2024-02-15T04:52:54;4.00;;;2.50;;
305;SDS011;137;48.578;9.180;2024-02-15T04:55:21;3.80;;;2.60;;
305;SDS011;137;48.578;9.180;2024-02-15T04:57:48;2.30;;;2.10;;
305;SDS011;137;48.578;9.180;2024-02-15T05:00:21;2.00;;;1.90;;
305;SDS011;137;48.578;9.180;2024-02-15T05:02:50;2.50;;;2.30;;
305;SDS011;137;48.578;9.180;2024-02-15T05:05:17;2.97;;;2.50;;
305;SDS011;137;48.578;9.180;2024-02-15T05:07:44;3.97;;;3.10;;
305;SDS011;137;48.578;9.180;2024-02-15T05:10:14;5.53;;;3.70;;
305;SDS011;137;48.578;9.180;2024-02-15T05:12:41;5.23;;;4.33;;
305;SDS011;137;48.578;9.180;2024-02-15T05:15:08;8.43;;;6.00;;
305;SDS011;137;48.578;9.180;2024-02-15T05:17:37;7.73;;;6.57;;
305;SDS011;137;48.578;9.180;2024-02-15T05:20:07;5.70;;;4.97;;
305;SDS011;137;48.578;9.180;2024-02-15T05:22:37;5.63;;;4.10;;
305;SDS011;137;48.578;9.180;2024-02-15T05:25:05;3.80;;;3.27;;
305;SDS011;137;48.578;9.180;2024-02-15T05:27:33;5.03;;;3.97;;
305;SDS011;137;48.578;9.180;2024-02-15T05:30:01;3.70;;;3.20;;
305;SDS011;137;48.578;9.180;2024-02-15T05:32:31;4.20;;;3.50;;
305;SDS011;137;48.578;9.180;2024-02-15T05:35:00;4.20;;;3.80;;
305;SDS011;137;48.578;9.180;2024-02-15T05:37:27;3.90;;;3.60;;
305;SDS011;137;48.578;9.180;2024-02-15T05:39:53;7.30;;;3.10;;
305;SDS011;137;48.578;9.180;2024-02-15T05:42:20;4.50;;;3.13;;
305;SDS011;137;48.578;9.180;2024-02-15T05:44:49;3.77;;;2.33;;
305;SDS011;137;48.578;9.180;2024-02-15T05:47:15;4.20;;;2.43;;
305;SDS011;137;48.578;9.180;2024-02-15T05:49:42;3.20;;;2.57;;
305;SDS011;137;48.578;9.180;2024-02-15T05:52:11;7.73;;;3.60;;
305;SDS011;137;48.578;9.180;2024-02-15T05:54:38;6.73;;;4.30;;
305;SDS011;137;48.578;9.180;2024-02-15T05:57:06;8.83;;;4.37;;
305;SDS011;137;48.578;9.180;2024-02-15T05:59:33;4.60;;;4.20;;
305;SDS011;137;48.578;9.180;2024-02-15T06:02:00;5.03;;;3.73;;
305;SDS011;137;48.578;9.180;2024-02-15T06:04:28;6.60;;;5.17;;
305;SDS011;137;48.578;9.180;2024-02-15T06:06:54;7.87;;;4.60;;
305;SDS011;137;48.578;9.180;2024-02-15T06:09:27;6.03;;;4.07;;
305;SDS011;137;48.578;9.180;2024-02-15T06:11:55;3.80;;;3.50;;
305;SDS011;137;48.578;9.180;2024-02-15T06:14:22;6.83;;;4.00;;
305;SDS011;137;48.578;9.180;2024-02-15T06:16:49;6.23;;;4.40;;
305;SDS011;137;48.578;9.180;2024-02-15T06:19:26;6.50;;;4.10;;
305;SDS011;137;48.578;9.180;2024-02-15T06:21:53;5.77;;;5.17;;
305;SDS011;137;48.578;9.180;2024-02-15T06:24:20;7.00;;;6.17;;
305;SDS011;137;48.578;9.180;2024-02-15T06:26:46;10.90;;;9.53;;
305;SDS011;137;48.578;9.180;2024-02-15T06:29:16;14.50;;;10.03;;
305;SDS011;137;48.578;9.180;2024-02-15T06:32:01;7.17;;;6.47;;
305;SDS011;137;48.578;9.180;2024-02-15T06:34:46;8.33;;;5.40;;
305;SDS011;137;48.578;9.180;2024-02-15T06:37:36;9.73;;;6.93;;
305;SDS011;137;48.578;9.180;2024-02-15T06:40:20;8.00;;;7.03;;
305;SDS011;137;48.578;9.180;2024-02-15T06:42:47;16.03;;;11.83;;
305;SDS011;137;48.578;9.180;2024-02-15T06:45:14;12.67;;;11.40;;
305;SDS011;137;48.578;9.180;2024-02-15T06:47:41;10.50;;;9.40;;
305;SDS011;137;48.578;9.180;2024-02-15T06:50:10;7.93;;;7.13;;
305;SDS011;137;48.578;9.180;2024-02-15T06:52:38;5.50;;;5.00;;
305;SDS011;137;48.578;9.180;2024-02-15T06:55:06;5.90;;;5.40;;
305;SDS011;137;48.578;9.180;2024-02-15T06:57:33;7.00;;;4.80;;
305;SDS011;137;48.578;9.180;2024-02-15T07:00:02;4.57;;;4.10;;
305;SDS011;137;48.578;9.180;2024-02-15T07:02:29;4.33;;;3.70;;
305;SDS011;137;48.578;9.180;2024-02-15T07:04:57;5.93;;;4.40;;
305;SDS011;137;48.578;9.180;2024-02-15T07:07:26;3.63;;;3.33;;
305;SDS011;137;48.578;9.180;2024-02-15T07:09:52;4.83;;;3.40;;
305;SDS011;137;48.578;9.180;2024-02-15T07:12:19;8.03;;;4.37;;
305;SDS011;137;48.578;9.180;2024-02-15T07:14:46;3.80;;;3.20;;
305;SDS011;137;48.578;9.180;2024-02-15T07:17:13;3.53;;;2.93;;
305;SDS011;137;48.578;9.180;2024-02-15T07:19:41;5.60;;;3.00;;
305;SDS011;137;48.578;9.180;2024-02-15T07:22:09;3.60;;;3.30;;
305;SDS011;137;48.578;9.180;2024-02-15T07:24:37;2.63;;;2.43;;
305;SDS011;137;48.578;9.180;2024-02-15T07:27:04;3.77;;;3.40;;
305;SDS011;137;48.578;9.180;2024-02-15T07:29:31;9.77;;;4.20;;
305;SDS011;137;48.578;9.180;2024-02-15T07:31:58;7.90;;;4.80;;
305;SDS011;137;48.578;9.180;2024-02-15T07:34:29;8.57;;;6.40;;
305;SDS011;137;48.578;9.180;2024-02-15T07:36:55;8.10;;;5.80;;
305;SDS011;137;48.578;9.180;2024-02-15T07:39:23;12.57;;;6.47;;
305;SDS011;137;48.578;9.180;2024-02-15T07:41:54;7.37;;;5.03;;
305;SDS011;137;48.578;9.180;2024-02-15T07:44:23;6.10;;;5.27;;
305;SDS011;137;48.578;9.180;2024-02-15T07:46:50;4.30;;;3.90;;
305;SDS011;137;48.578;9.180;2024-02-15T07:49:17;5.77;;;4.80;;
305;SDS011;137;48.578;9.180;2024-02-15T07:51:44;7.23;;;5.67;;
305;SDS011;137;48.578;9.180;2024-02-15T07:54:16;5.30;;;4.57;;
305;SDS011;137;48.578;9.180;2024-02-15T07:56:45;4.40;;;4.00;;
305;SDS011;137;48.578;9.180;2024-02-15T07:59:14;4.40;;;4.00;;
305;SDS011;137;48.578;9.180;2024-02-15T08:01:41;6.07;;;5.20;;
305;SDS011;137;48.578;9.180;2024-02-15T08:04:11;4.90;;;4.40;;
305;SDS011;137;48.578;9.180;2024-02-15T08:06:37;6.10;;;4.70;;
305;SDS011;137;48.578;9.180;2024-02-15T08:09:04;5.43;;;4.90;;
305;SDS011;137;48.578;9.180;2024-02-15T08:11:31;7.00;;;4.50;;
305;SDS011;137;48.578;9.180;2024-02-15T08:13:58;3.97;;;3.67;;
305;SDS011;137;48.578;9.180;2024-02-15T08:16:26;5.50;;;4.80;;
305;SDS011;137;48.578;9.180;2024-02-15T08:18:53;5.53;;;4.67;;
305;SDS011;137;48.578;9.180;2024-02-15T08:21:25;3.37;;;2.90;;
305;SDS011;137;48.578;9.180;2024-02-15T08:23:54;3.70;;;2.93;;
305;SDS011;137;48.578;9.180;2024-02-15T08:26:21;2.63;;;2.17;;
305;SDS011;137;48.578;9.180;2024-02-15T08:28:48;3.30;;;2.23;;
305;SDS011;137;48.578;9.180;2024-02-15T08:31:14;2.20;;;2.00;;
305;SDS011;137;48.578;9.180;2024-02-15T08:33:43;2.20;;;1.83;;
305;SDS011;137;48.578;9.180;2024-02-15T08:36:10;3.47;;;2.60;;
305;SDS011;137;48.578;9.180;2024-02-15T08:38:38;3.03;;;2.63;;
305;SDS011;137;48.578;9.180;2024-02-15T08:41:06;2.47;;;2.07;;
305;SDS011;137;48.578;9.180;2024-02-15T08:43:33;3.10;;;2.00;;
305;SDS011;137;48.578;9.180;2024-02-15T08:46:00;3.10;;;1.77;;
305;SDS011;137;48.578;9.180;2024-02-15T08:48:26;4.40;;;2.90;;
305;SDS011;137;48.578;9.180;2024-02-15T08:50:56;3.10;;;1.60;;
305;SDS011;137;48.578;9.180;2024-02-15T08:53:23;3.07;;;1.93;;
305;SDS011;137;48.578;9.180;2024-02-15T08:55:51;2.87;;;1.77;;
305;SDS011;137;48.578;9.180;2024-02-15T08:58:19;1.90;;;1.70;;
305;SDS011;137;48.578;9.180;2024-02-15T09:00:46;2.27;;;1.97;;
305;SDS011;137;48.578;9.180;2024-02-15T09:03:13;1.73;;;1.43;;
305;SDS011;137;48.578;9.180;2024-02-15T09:05:40;2.57;;;1.70;;
305;SDS011;137;48.578;9.180;2024-02-15T09:08:08;3.90;;;2.00;;
305;SDS011;137;48.578;9.180;2024-02-15T09:10:35;2.87;;;1.87;;
305;SDS011;137;48.578;9.180;2024-02-15T09:13:04;2.03;;;1.70;;
305;SDS011;137;48.578;9.180;2024-02-15T09:15:31;3.23;;;1.90;;
305;SDS011;137;48.578;9.180;2024-02-15T09:17:58;3.00;;;1.90;;
305;SDS011;137;48.578;9.180;2024-02-15T09:20:25;3.40;;;2.47;;
305;SDS011;137;48.578;9.180;2024-02-15T09:22:53;3.80;;;1.80;;
305;SDS011;137;48.578;9.180;2024-02-15T09:25:22;6.20;;;1.90;;
305;SDS011;137;48.578;9.180;2024-02-15T09:27:49;3.90;;;2.50;;
305;SDS011;137;48.578;9.180;2024-02-15T09:30:19;2.33;;;1.70;;
305;SDS011;137;48.578;9.180;2024-02-15T09:32:49;6.30;;;2.13;;
305;SDS011;137;48.578;9.180;2024-02-15T09:35:16;3.57;;;2.40;;
305;SDS011;137;48.578;9.180;2024-02-15T09:37:44;8.33;;;2.37;;
305;SDS011;137;48.578;9.180;2024-02-15T09:40:13;2.43;;;2.17;;
305;SDS011;137;48.578;9.180;2024-02-15T09:42:43;2.53;;;1.90;;
305;SDS011;137;48.578;9.180;2024-02-15T09:45:11;2.23;;;1.70;;
305;SDS011;137;48.578;9.180;2024-02-15T09:47:40;4.13;;;2.07;;
305;SDS011;137;48.578;9.180;2024-02-15T09:50:07;4.47;;;1.97;;
305;SDS011;137;48.578;9.180;2024-02-15T09:52:36;3.47;;;1.80;;
305;SDS011;137;48.578;9.180;2024-02-15T09:55:05;3.33;;;1.83;;
305;SDS011;137;48.578;9.180;2024-02-15T09:57:36;2.93;;;1.90;;
305;SDS011;137;48.578;9.180;2024-02-15T10:00:05;2.87;;;1.77;;
305;SDS011;137;48.578;9.180;2024-02-15T10:02:33;3.07;;;1.70;;
305;SDS011;137;48.578;9.180;2024-02-15T10:05:01;2.30;;;1.83;;
305;SDS011;137;48.578;9.180;2024-02-15T10:07:28;2.60;;;1.77;;
305;SDS011;137;48.578;9.180;2024-02-15T10:09:55;3.20;;;2.00;;
305;SDS011;137;48.578;9.180;2024-02-15T10:12:22;4.67;;;2.10;;
305;SDS011;137;48.578;9.180;2024-02-15T10:15:05;7.90;;;4.47;;
305;SDS011;137;48.578;9.180;2024-02-15T10:17:34;15.17;;;1.90;;
305;SDS011;137;48.578;9.180;2024-02-15T10:20:05;3.63;;;1.60;;
305;SDS011;137;48.578;9.180;2024-02-15T10:22:35;5.20;;;1.73;;
305;SDS011;137;48.578;9.180;2024-02-15T10:25:12;3.38;;;2.03;;
305;SDS011;137;48.578;9.180;2024-02-15T10:27:39;1.60;;;1.30;;
305;SDS011;137;48.578;9.180;2024-02-15T10:30:17;1.50;;;1.30;;
305;SDS011;137;48.578;9.180;2024-02-15T10:32:46;3.50;;;1.20;;
305;SDS011;137;48.578;9.180;2024-02-15T10:35:19;1.73;;;1.10;;
305;SDS011;137;48.578;9.180;2024-02-15T10:37:47;4.10;;;1.30;;
305;SDS011;137;48.578;9.180;2024-02-15T10:40:22;1.67;;;1.10;;
305;SDS011;137;48.578;9.180;2024-02-15T10:42:50;1.97;;;1.40;;
305;SDS011;137;48.578;9.180;2024-02-15T10:45:19;3.80;;;1.20;;
305;SDS011;137;48.578;9.180;2024-02-15T10:47:46;1.60;;;1.27;;
305;SDS011;137;48.578;9.180;2024-02-15T10:50:13;2.40;;;1.10;;
305;SDS011;137;48.578;9.180;2024-02-15T10:52:43;3.20;;;1.40;;
305;SDS011;137;48.578;9.180;2024-02-15T10:55:17;3.80;;;1.70;;
305;SDS011;137;48.578;9.180;2024-02-15T10:57:48;1.83;;;1.17;;
305;SDS011;137;48.578;9.180;2024-02-15T11:00:20;3.23;;;1.20;;
305;SDS011;137;48.578;9.180;2024-02-15T11:02:54;2.37;;;1.30;;
305;SDS011;137;48.578;9.180;2024-02-15T11:05:27;2.60;;;1.43;;
305;SDS011;137;48.578;9.180;2024-02-15T11:07:59;1.80;;;1.20;;
305;SDS011;137;48.578;9.180;2024-02-15T11:10:27;3.00;;;1.30;;
305;SDS011;137;48.578;9.180;2024-02-15T11:12:54;4.77;;;1.10;;
305;SDS011;137;48.578;9.180;2024-02-15T11:15:44;2.93;;;1.30;;
305;SDS011;137;48.578;9.180;2024-02-15T11:21:14;1.60;;;1.00;;
305;SDS011;137;48.578;9.180;2024-02-15T11:23:41;2.27;;;1.00;;
305;SDS011;137;48.578;9.180;2024-02-15T11:26:09;3.20;;;1.17;;
305;SDS011;137;48.578;9.180;2024-02-15T11:28:56;8.30;;;1.20;;
305;SDS011;137;48.578;9.180;2024-02-15T11:31:53;3.53;;;1.50;;
305;SDS011;137;48.578;9.180;2024-02-15T11:40:18;2.80;;;1.20;;
305;SDS011;137;48.578;9.180;2024-02-15T11:42:44;2.83;;;1.50;;
305;SDS011;137;48.578;9.180;2024-02-15T11:45:12;3.20;;;1.10;;
305;SDS011;137;48.578;9.180;2024-02-15T11:47:46;2.53;;;1.30;;
305;SDS011;137;48.578;9.180;2024-02-15T11:50:15;2.30;;;1.20;;
305;SDS011;137;48.578;9.180;2024-02-15T11:52:43;1.87;;;1.20;;
305;SDS011;137;48.578;9.180;2024-02-15T11:55:11;1.90;;;1.10;;
305;SDS011;137;48.578;9.180;2024-02-15T11:57:39;4.97;;;1.43;;
305;SDS011;137;48.578;9.180;2024-02-15T12:00:22;2.13;;;1.27;;
305;SDS011;137;48.578;9.180;2024-02-15T12:03:08;2.10;;;1.23;;
305;SDS011;137;48.578;9.180;2024-02-15T12:05:52;2.13;;;1.80;;
305;SDS011;137;48.578;9.180;2024-02-15T12:08:37;2.47;;;1.10;;
305;SDS011;137;48.578;9.180;2024-02-15T12:11:36;1.80;;;1.10;;
305;SDS011;137;48.578;9.180;2024-02-15T12:14:21;3.57;;;1.33;;
305;SDS011;137;48.578;9.180;2024-02-15T12:17:06;1.60;;;1.20;;
305;SDS011;137;48.578;9.180;2024-02-15T12:19:53;1.80;;;1.03;;
305;SDS011;137;48.578;9.180;2024-02-15T12:22:21;1.83;;;0.90;;
305;SDS011;137;48.578;9.180;2024-02-15T12:24:54;1.20;;;1.00;;
305;SDS011;137;48.578;9.180;2024-02-15T12:27:22;3.80;;;1.83;;
305;SDS011;137;48.578;9.180;2024-02-15T12:29:52;1.90;;;1.00;;
305;SDS011;137;48.578;9.180;2024-02-15T12:32:21;1.60;;;1.17;;
305;SDS011;137;48.578;9.180;2024-02-15T12:34:48;3.07;;;1.40;;
305;SDS011;137;48.578;9.180;2024-02-15T12:37:18;1.83;;;1.00;;
305;SDS011;137;48.578;9.180;2024-02-15T12:39:47;2.60;;;1.20;;
305;SDS011;137;48.578;9.180;2024-02-15T12:42:14;1.60;;;1.20;;
305;SDS011;137;48.578;9.180;2024-02-15T12:44:45;5.57;;;1.50;;
305;SDS011;137;48.578;9.180;2024-02-15T12:47:22;2.00;;;1.17;;
305;SDS011;137;48.578;9.180;2024-02-15T12:49:50;2.57;;;1.50;;
305;SDS011;137;48.578;9.180;2024-02-15T12:52:33;2.67;;;1.10;;
305;SDS011;137;48.578;9.180;2024-02-15T12:57:50;1.40;;;1.10;;
305;SDS011;137;48.578;9.180;2024-02-15T13:00:17;4.17;;;1.30;;
305;SDS011;137;48.578;9.180;2024-02-15T13:02:46;2.13;;;1.40;;
305;SDS011;137;48.578;9.180;2024-02-15T13:05:14;3.53;;;1.10;;
305;SDS011;137;48.578;9.180;2024-02-15T13:07:45;2.20;;;1.40;;
305;SDS011;137;48.578;9.180;2024-02-15T13:10:12;1.70;;;1.23;;
305;SDS011;137;48.578;9.180;2024-02-15T13:12:41;3.20;;;1.30;;
305;SDS011;137;48.578;9.180;2024-02-15T13:15:09;1.57;;;1.47;;
305;SDS011;137;48.578;9.180;2024-02-15T13:17:39;6.90;;;1.30;;
305;SDS011;137;48.578;9.180;2024-02-15T13:20:09;5.33;;;1.43;;
305;SDS011;137;48.578;9.180;2024-02-15T13:22:38;2.60;;;1.33;;
305;SDS011;137;48.578;9.180;2024-02-15T13:25:07;2.30;;;1.47;;
305;SDS011;137;48.578;9.180;2024-02-15T13:27:34;3.23;;;1.10;;
305;SDS011;137;48.578;9.180;2024-02-15T13:30:03;1.83;;;1.10;;
305;SDS011;137;48.578;9.180;2024-02-15T13:32:33;2.60;;;1.77;;
305;SDS011;137;48.578;9.180;2024-02-15T13:35:00;1.93;;;1.20;;
305;SDS011;137;48.578;9.180;2024-02-15T13:37:32;10.20;;;1.70;;
305;SDS011;137;48.578;9.180;2024-02-15T13:40:00;1.83;;;1.37;;
305;SDS011;137;48.578;9.180;2024-02-15T13:42:29;2.10;;;1.60;;
305;SDS011;137;48.578;9.180;2024-02-15T13:44:58;3.70;;;1.70;;
305;SDS011;137;48.578;9.180;2024-02-15T13:47:25;2.90;;;1.23;;
305;SDS011;137;48.578;9.180;2024-02-15T13:49:51;3.07;;;1.40;;
305;SDS011;137;48.578;9.180;2024-02-15T13:52:18;4.90;;;1.57;;
305;SDS011;137;48.578;9.180;2024-02-15T13:54:47;2.23;;;1.67;;
305;SDS011;137;48.578;9.180;2024-02-15T13:57:14;2.13;;;1.10;;
305;SDS011;137;48.578;9.180;2024-02-15T13:59:43;2.07;;;1.37;;
305;SDS011;137;48.578;9.180;2024-02-15T14:02:10;2.43;;;1.53;;
305;SDS011;137;48.578;9.180;2024-02-15T14:04:37;3.30;;;1.20;;
305;SDS011;137;48.578;9.180;2024-02-15T14:07:03;1.47;;;1.20;;
305;SDS011;137;48.578;9.180;2024-02-15T14:09:30;3.70;;;1.73;;
305;SDS011;137;48.578;9.180;2024-02-15T14:11:57;2.57;;;1.47;;
305;SDS011;137;48.578;9.180;2024-02-15T14:14:24;2.30;;;1.27;;
305;SDS011;137;48.578;9.180;2024-02-15T14:16:52;1.70;;;1.30;;
305;SDS011;137;48.578;9.180;2024-02-15T14:19:19;2.90;;;1.33;;
305;SDS011;137;48.578;9.180;2024-02-15T14:21:46;2.10;;;1.40;;
305;SDS011;137;48.578;9.180;2024-02-15T14:24:13;5.03;;;1.70;;
305;SDS011;137;48.578;9.180;2024-02-15T14:26:40;1.63;;;1.27;;
305;SDS011;137;48.578;9.180;2024-02-15T14:29:07;4.53;;;1.50;;
305;SDS011;137;48.578;9.180;2024-02-15T14:31:34;2.63;;;1.50;;
305;SDS011;137;48.578;9.180;2024-02-15T14:34:20;2.23;;;1.30;;
305;SDS011;137;48.578;9.180;2024-02-15T14:36:47;5.80;;;1.83;;
305;SDS011;137;48.578;9.180;2024-02-15T14:39:13;4.80;;;1.70;;
305;SDS011;137;48.578;9.180;2024-02-15T14:41:40;1.87;;;1.20;;
305;SDS011;137;48.578;9.180;2024-02-15T14:44:08;1.77;;;1.60;;
305;SDS011;137;48.578;9.180;2024-02-15T14:46:37;3.67;;;1.80;;
305;SDS011;137;48.578;9.180;2024-02-15T14:49:05;4.60;;;2.07;;
305;SDS011;137;48.578;9.180;2024-02-15T14:51:35;1.67;;;1.27;;
305;SDS011;137;48.578;9.180;2024-02-15T14:54:04;1.57;;;1.40;;
305;SDS011;137;48.578;9.180;2024-02-15T14:56:31;3.27;;;1.60;;
305;SDS011;137;48.578;9.180;2024-02-15T14:58:58;3.30;;;1.73;;
305;SDS011;137;48.578;9.180;2024-02-15T15:01:25;3.97;;;1.60;;
305;SDS011;137;48.578;9.180;2024-02-15T15:03:54;6.80;;;1.47;;
305;SDS011;137;48.578;9.180;2024-02-15T15:06:23;2.73;;;1.93;;
305;SDS011;137;48.578;9.180;2024-02-15T15:09:09;2.53;;;1.70;;
305;SDS011;137;48.578;9.180;2024-02-15T15:12:07;2.23;;;1.57;;
305;SDS011;137;48.578;9.180;2024-02-15T15:14:51;4.63;;;1.60;;
305;SDS011;137;48.578;9.180;2024-02-15T15:17:20;6.97;;;2.07;;
305;SDS011;137;48.578;9.180;2024-02-15T15:19:47;4.27;;;1.70;;
305;SDS011;137;48.578;9.180;2024-02-15T15:22:14;4.53;;;1.77;;
305;SDS011;137;48.578;9.180;2024-02-15T15:24:48;3.53;;;2.10;;
305;SDS011;137;48.578;9.180;2024-02-15T15:27:15;2.27;;;1.50;;
305;SDS011;137;48.578;9.180;2024-02-15T15:29:43;3.43;;;1.70;;
305;SDS011;137;48.578;9.180;2024-02-15T15:32:10;4.50;;;1.90;;
305;SDS011;137;48.578;9.180;2024-02-15T15:34:36;3.00;;;1.27;;
305;SDS011;137;48.578;9.180;2024-02-15T15:37:03;2.87;;;1.50;;
305;SDS011;137;48.578;9.180;2024-02-15T15:39:32;3.53;;;2.07;;
305;SDS011;137;48.578;9.180;2024-02-15T15:42:03;3.73;;;1.93;;
305;SDS011;137;48.578;9.180;2024-02-15T15:44:32;5.53;;;2.10;;
305;SDS011;137;48.578;9.180;2024-02-15T15:46:59;2.10;;;1.43;;
305;SDS011;137;48.578;9.180;2024-02-15T15:49:26;4.63;;;2.17;;
305;SDS011;137;48.578;9.180;2024-02-15T15:51:52;4.87;;;4.37;;
305;SDS011;137;48.578;9.180;2024-02-15T15:54:19;3.30;;;2.20;;
305;SDS011;137;48.578;9.180;2024-02-15T15:56:46;7.90;;;4.03;;
305;SDS011;137;48.578;9.180;2024-02-15T15:59:14;7.43;;;5.40;;
305;SDS011;137;48.578;9.180;2024-02-15T16:01:46;8.20;;;2.20;;
305;SDS011;137;48.578;9.180;2024-02-15T16:04:14;2.83;;;1.83;;
305;SDS011;137;48.578;9.180;2024-02-15T16:06:41;3.70;;;1.57;;
305;SDS011;137;48.578;9.180;2024-02-15T16:09:08;3.00;;;1.73;;
305;SDS011;137;48.578;9.180;2024-02-15T16:11:36;6.40;;;1.50;;